Time;durP1;ratioP1;P1;durP2;ratioP2;P2;SDS_P1;SDS_P2;PMS_P1;PMS_P2;Temp;Humidity;BMP_temperature;BMP_pressure;BME280_temperature;BME280_humidity;BME280_pressure;Samples;Min_cycle;Max_cycle;Signal;HPM_P1;HPM_P2
2023/07/09 00:00:52;;;;;;;8.98;3.90;;;20.40;1.00;;;;;;6218112;23;20024;-90
2023/07/09 00:03:40;;;;;;;9.32;4.00;;;20.40;1.00;;;;;;6226204;23;20024;-90
2023/07/09 00:06:28;;;;;;;6.65;4.05;;;20.40;1.00;;;;;;6222327;23;20020;-89
2023/07/09 00:09:19;;;;;;;7.30;3.60;;;20.40;1.00;;;;;;6224649;23;20424;-92
2023/07/09 00:12:13;;;;;;;11.07;4.45;;;20.40;1.00;;;;;;6221485;23;20032;-90
2023/07/09 00:15:00;;;;;;;7.65;4.28;;;20.50;1.00;;;;;;6218117;23;20421;-90
2023/07/09 00:17:49;;;;;;;11.15;4.13;;;20.50;1.00;;;;;;6216310;23;20179;-91
2023/07/09 00:20:37;;;;;;;5.15;3.78;;;20.60;1.00;;;;;;6217361;23;20090;-91
2023/07/09 00:23:27;;;;;;;7.10;3.60;;;20.60;1.00;;;;;;6218321;23;20020;-90
2023/07/09 00:26:20;;;;;;;6.50;4.05;;;20.60;1.00;;;;;;6217436;23;20031;-92
2023/07/09 00:29:10;;;;;;;6.60;4.13;;;20.60;1.00;;;;;;6186840;23;20029;-91
2023/07/09 00:31:57;;;;;;;5.70;3.72;;;20.60;1.00;;;;;;6167623;23;20032;-89
2023/07/09 00:34:48;;;;;;;8.23;3.90;;;20.60;1.00;;;;;;6168431;23;20043;-91
2023/07/09 00:37:35;;;;;;;5.80;3.92;;;20.60;1.00;;;;;;6168406;23;20032;-90
2023/07/09 00:40:25;;;;;;;7.43;3.78;;;20.60;1.00;;;;;;6165673;23;20469;-89
2023/07/09 00:43:16;;;;;;;8.50;4.47;;;20.60;1.00;;;;;;6189714;23;20040;-90
2023/07/09 00:46:19;;;;;;;8.38;4.35;;;20.50;1.00;;;;;;6187984;23;20032;-91
2023/07/09 00:49:10;;;;;;;;;;;20.50;1.00;;;;;;6188465;23;20039;-90
2023/07/09 00:52:03;;;;;;;9.88;4.63;;;20.50;1.00;;;;;;6166474;23;19931;-91
2023/07/09 00:54:52;;;;;;;11.60;4.13;;;20.50;1.00;;;;;;6188015;23;20033;-90
2023/07/09 00:57:41;;;;;;;6.82;3.80;;;20.50;1.00;;;;;;6169671;23;20025;-90
2023/07/09 01:00:42;;;;;;;7.85;4.00;;;20.40;1.00;;;;;;6180567;23;20363;-90
2023/07/09 01:03:44;;;;;;;10.23;3.95;;;20.40;1.00;;;;;;6202239;23;20108;-91
2023/07/09 01:06:44;;;;;;;7.03;3.65;;;20.30;1.00;;;;;;6179032;23;20116;-91
2023/07/09 01:09:35;;;;;;;6.90;4.05;;;20.10;1.00;;;;;;6187191;23;20040;-87
2023/07/09 01:12:24;;;;;;;8.95;3.90;;;20.00;1.00;;;;;;6191388;23;20025;-87
2023/07/09 01:15:12;;;;;;;8.50;3.90;;;20.00;1.00;;;;;;6190449;23;20037;-90
2023/07/09 01:18:00;;;;;;;7.05;3.83;;;20.00;1.00;;;;;;6179164;23;20436;-89
2023/07/09 01:20:47;;;;;;;10.02;4.57;;;20.00;1.00;;;;;;6198690;23;20029;-89
2023/07/09 01:23:36;;;;;;;7.80;4.30;;;20.10;1.00;;;;;;6178095;23;20069;-91
2023/07/09 01:26:26;;;;;;;6.97;4.07;;;20.00;1.00;;;;;;6197952;23;20451;-90
2023/07/09 01:29:13;;;;;;;8.88;4.60;;;19.90;1.00;;;;;;6167824;23;20029;-90
2023/07/09 01:32:06;;;;;;;8.80;4.47;;;19.90;1.00;;;;;;6165962;23;20051;-91
2023/07/09 01:35:04;;;;;;;8.63;4.40;;;19.80;1.00;;;;;;6189380;23;20036;-89
2023/07/09 01:37:52;;;;;;;7.80;4.65;;;19.80;1.00;;;;;;6167878;23;20444;-90
2023/07/09 01:40:39;;;;;;;7.45;4.03;;;19.70;1.00;;;;;;6188050;23;20025;-90
2023/07/09 01:43:27;;;;;;;7.88;4.70;;;19.60;1.00;;;;;;6167417;23;20032;-90
2023/07/09 01:46:16;;;;;;;6.43;4.03;;;19.70;1.00;;;;;;6187575;23;20096;-90
2023/07/09 01:49:07;;;;;;;13.57;4.82;;;19.70;1.00;;;;;;6187278;23;20040;-90
2023/07/09 01:51:54;;;;;;;8.30;4.20;;;19.80;1.00;;;;;;6171609;23;20065;-90
2023/07/09 01:54:49;;;;;;;9.65;4.25;;;19.80;1.00;;;;;;6196666;23;20028;-89
2023/07/09 01:57:36;;;;;;;9.55;4.05;;;19.80;1.00;;;;;;6176944;23;20031;-89
2023/07/09 02:00:27;;;;;;;14.10;4.88;;;19.90;1.00;;;;;;6199156;23;20021;-90
2023/07/09 02:03:16;;;;;;;7.28;4.13;;;19.90;1.00;;;;;;6203449;23;20032;-89
2023/07/09 02:06:09;;;;;;;7.13;3.75;;;19.90;1.00;;;;;;6179594;23;20021;-90
2023/07/09 02:08:58;;;;;;;9.40;4.25;;;19.80;1.00;;;;;;6189259;23;20013;-89
2023/07/09 02:11:45;;;;;;;12.50;4.32;;;19.60;1.00;;;;;;6212422;23;20017;-88
2023/07/09 02:14:51;;;;;;;11.10;5.03;;;19.50;5.30;;;;;;6202176;23;20021;-89
2023/07/09 02:17:39;;;;;;;9.25;4.43;;;19.40;16.10;;;;;;6199102;23;20064;-91
2023/07/09 02:20:26;;;;;;;7.88;4.63;;;19.40;23.90;;;;;;6177272;23;20095;-90
2023/07/09 02:23:16;;;;;;;8.55;4.47;;;19.50;19.50;;;;;;6190470;23;20021;-91
2023/07/09 02:26:03;;;;;;;10.07;4.50;;;19.50;19.00;;;;;;6168292;23;20413;-93
2023/07/09 02:28:52;;;;;;;8.73;4.55;;;19.40;24.40;;;;;;6212903;23;20021;-90
2023/07/09 02:31:40;;;;;;;7.72;4.55;;;19.40;29.40;;;;;;6217668;23;20029;-91
2023/07/09 02:34:29;;;;;;;6.60;4.50;;;19.30;30.70;;;;;;6218323;23;20320;-90
2023/07/09 02:37:17;;;;;;;11.75;4.53;;;19.30;33.50;;;;;;6215134;23;20031;-89
2023/07/09 02:40:08;;;;;;;8.43;4.50;;;19.40;29.10;;;;;;6217146;23;20044;-93
2023/07/09 02:42:57;;;;;;;11.27;4.63;;;19.40;30.20;;;;;;6216263;23;20380;-91
2023/07/09 02:45:45;;;;;;;9.50;4.75;;;19.40;32.50;;;;;;6215875;23;20021;-90
2023/07/09 02:48:32;;;;;;;6.53;4.22;;;19.40;35.00;;;;;;6218558;23;20025;-89
2023/07/09 02:51:19;;;;;;;9.02;4.55;;;19.30;36.80;;;;;;6215996;23;20174;-91
2023/07/09 02:54:07;;;;;;;9.88;4.75;;;19.30;41.90;;;;;;6217877;23;20503;-90
2023/07/09 02:56:54;;;;;;;6.18;4.47;;;19.20;46.00;;;;;;6217976;23;20112;-91
2023/07/09 02:59:42;;;;;;;10.02;5.25;;;19.10;59.80;;;;;;6216623;23;20071;-91
2023/07/09 03:02:30;;;;;;;8.30;4.57;;;19.10;69.50;;;;;;6219041;23;20021;-92
2023/07/09 03:05:17;;;;;;;9.60;4.88;;;19.00;83.70;;;;;;6215866;23;20162;-90
2023/07/09 03:08:06;;;;;;;12.60;4.75;;;18.90;90.30;;;;;;6219478;23;20048;-90
2023/07/09 03:10:55;;;;;;;9.15;4.97;;;19.00;91.80;;;;;;6218349;23;20029;-91
2023/07/09 03:13:43;;;;;;;8.48;5.45;;;19.00;90.70;;;;;;6218505;23;20029;-90
2023/07/09 03:16:33;;;;;;;6.80;4.40;;;19.00;92.00;;;;;;6216259;23;20028;-91
2023/07/09 03:19:22;;;;;;;7.20;4.60;;;19.00;94.50;;;;;;6217515;23;20111;-91
2023/07/09 03:22:09;;;;;;;11.00;5.00;;;19.00;95.40;;;;;;6217269;23;20028;-90
2023/07/09 03:24:56;;;;;;;8.25;4.75;;;19.00;94.90;;;;;;6215412;23;20324;-90
2023/07/09 03:27:46;;;;;;;8.98;5.07;;;19.10;93.80;;;;;;6215481;23;20020;-91
2023/07/09 03:30:34;;;;;;;8.90;4.90;;;19.00;93.40;;;;;;6217505;23;20033;-92
2023/07/09 03:33:21;;;;;;;11.63;4.55;;;19.00;94.90;;;;;;6217611;23;20092;-91
2023/07/09 03:36:08;;;;;;;7.97;4.97;;;19.00;96.50;;;;;;6217078;23;20021;-91
2023/07/09 03:38:56;;;;;;;8.38;4.75;;;19.10;95.50;;;;;;6215326;23;20103;-90
2023/07/09 03:41:43;;;;;;;8.48;4.80;;;19.20;86.40;;;;;;6217191;23;20017;-91
2023/07/09 03:44:30;;;;;;;7.55;5.25;;;19.30;70.70;;;;;;6216863;23;20021;-90
2023/07/09 03:47:18;;;;;;;8.07;4.47;;;19.30;57.20;;;;;;6217348;23;20024;-91
2023/07/09 03:50:09;;;;;;;7.32;4.63;;;19.30;56.90;;;;;;6216082;23;20111;-92
2023/07/09 03:53:00;;;;;;;9.25;5.45;;;19.20;67.50;;;;;;6216452;23;20024;-92
2023/07/09 03:55:56;;;;;;;9.43;5.15;;;19.10;85.90;;;;;;6218661;23;20079;-91
2023/07/09 03:58:44;;;;;;;10.02;5.07;;;19.00;92.80;;;;;;6215933;23;20404;-91
2023/07/09 04:01:36;;;;;;;8.60;4.82;;;19.00;93.90;;;;;;6215671;23;20021;-90
2023/07/09 04:08:31;;;;;;;10.70;5.00;;;19.10;92.30;;;;;;6215444;23;20001;-90
2023/07/09 04:14:01;;;;;;;8.45;4.93;;;19.20;89.50;;;;;;6177344;23;20024;-84
2023/07/09 04:16:48;;;;;;;7.28;4.70;;;19.20;89.80;;;;;;6243339;23;20039;-82
2023/07/09 04:19:36;;;;;;;7.32;4.75;;;19.20;91.80;;;;;;6210078;23;20025;-84
2023/07/09 04:22:23;;;;;;;8.40;5.32;;;19.20;92.80;;;;;;6154011;23;20036;-84
2023/07/09 04:25:19;;;;;;;8.68;4.97;;;19.20;95.00;;;;;;6154012;23;20089;-83
2023/07/09 04:28:07;;;;;;;9.32;5.65;;;19.30;93.00;;;;;;6172386;23;20100;-82
2023/07/09 04:30:57;;;;;;;13.77;5.43;;;19.40;87.90;;;;;;6172657;23;20092;-84
2023/07/09 04:33:45;;;;;;;8.70;4.88;;;19.60;71.30;;;;;;6173888;23;20036;-82
2023/07/09 04:36:32;;;;;;;11.07;5.47;;;19.80;52.90;;;;;;6152574;23;20044;-82
2023/07/09 04:39:20;;;;;;;10.23;5.57;;;19.80;46.20;;;;;;6173778;23;20021;-83
2023/07/09 04:42:12;;;;;;;8.43;5.38;;;19.70;48.50;;;;;;6172171;23;20025;-82
2023/07/09 04:44:59;;;;;;;7.80;4.85;;;19.70;55.40;;;;;;6175241;23;20026;-83
2023/07/09 04:47:49;;;;;;;8.55;4.65;;;19.70;60.80;;;;;;6174813;23;20025;-83
2023/07/09 04:50:40;;;;;;;7.35;5.18;;;19.80;67.10;;;;;;6174998;23;20096;-84
2023/07/09 04:53:27;;;;;;;8.57;5.35;;;19.80;64.90;;;;;;6174438;23;20025;-83
2023/07/09 04:56:15;;;;;;;8.23;4.72;;;19.90;58.50;;;;;;6173471;23;20053;-83
2023/07/09 04:59:04;;;;;;;10.80;4.93;;;20.00;51.20;;;;;;6174790;23;20029;-82
2023/07/09 05:01:54;;;;;;;7.05;4.70;;;20.10;44.40;;;;;;6154510;23;20041;-82
2023/07/09 05:04:41;;;;;;;10.75;5.07;;;20.20;38.10;;;;;;6173521;23;20029;-82
2023/07/09 05:07:29;;;;;;;9.93;4.78;;;20.30;30.40;;;;;;6175008;23;20044;-84
2023/07/09 05:10:19;;;;;;;11.00;5.32;;;20.30;26.10;;;;;;6173257;23;20029;-83
2023/07/09 05:13:06;;;;;;;9.15;4.35;;;20.40;19.80;;;;;;6173738;23;20026;-84
2023/07/09 05:15:53;;;;;;;10.25;5.65;;;20.50;15.60;;;;;;6157053;23;20044;-84
2023/07/09 05:18:43;;;;;;;8.07;5.10;;;20.50;9.90;;;;;;6175091;23;20017;-82
2023/07/09 05:21:32;;;;;;;9.95;4.90;;;20.60;2.60;;;;;;6204368;23;20400;-84
2023/07/09 05:24:19;;;;;;;7.97;4.88;;;20.70;1.00;;;;;;6235445;23;20029;-82
2023/07/09 05:27:07;;;;;;;7.85;4.68;;;20.70;1.00;;;;;;6235114;23;20036;-82
2023/07/09 05:29:56;;;;;;;11.30;5.25;;;20.70;1.00;;;;;;6238643;22;20024;-82
2023/07/09 05:32:47;;;;;;;9.05;4.70;;;20.60;1.00;;;;;;6238290;22;20111;-82
2023/07/09 05:35:36;;;;;;;12.23;5.45;;;20.60;1.00;;;;;;6218641;22;20507;-83
2023/07/09 05:38:24;;;;;;;9.88;5.00;;;20.60;1.00;;;;;;6237341;23;20032;-82
2023/07/09 05:54:34;;;;;;;10.40;6.57;;;21.30;1.00;;;;;;6214642;23;20024;-83
2023/07/09 06:01:47;;;;;;;11.48;5.05;;;21.60;1.00;;;;;;6010306;23;20039;-83
2023/07/09 06:05:10;;;;;;;10.57;5.00;;;21.80;1.00;;;;;;6012540;23;20045;-84
2023/07/09 06:08:24;;;;;;;8.13;4.68;;;22.00;1.00;;;;;;5955191;24;20065;-83
2023/07/09 07:22:18;;;;;;;6.53;3.65;;;27.70;1.00;;;;;;6084733;23;20371;-87
2023/07/09 07:41:31;;;;;;;4.22;3.10;;;29.90;1.00;;;;;;5916903;24;20441;-88
2023/07/09 07:44:27;;;;;;;7.38;3.58;;;30.60;1.00;;;;;;5981847;24;20032;-86
2023/07/09 07:47:28;;;;;;;8.10;3.60;;;30.70;1.00;;;;;;6075579;23;20101;-85
2023/07/09 07:50:22;;;;;;;8.80;3.65;;;31.00;1.00;;;;;;6118393;23;20124;-85
2023/07/09 07:53:23;;;;;;;6.53;3.58;;;31.20;1.00;;;;;;6184636;23;20060;-84
2023/07/09 07:56:10;;;;;;;5.45;3.50;;;31.40;1.00;;;;;;6183772;23;20029;-83
2023/07/09 07:59:39;;;;;;;4.82;3.50;;;31.20;1.00;;;;;;6182891;23;20028;-83
2023/07/09 08:02:28;;;;;;;6.68;3.30;;;31.20;1.00;;;;;;6164260;23;20040;-84
2023/07/09 08:05:23;;;;;;;;;;;31.70;1.00;;;;;;6184419;23;20072;-84
2023/07/09 08:08:14;;;;;;;6.32;3.70;;;32.20;1.00;;;;;;6330452;22;19953;-84
2023/07/09 08:11:11;;;;;;;4.55;3.38;;;32.00;1.00;;;;;;6286783;22;20027;-85
2023/07/09 08:13:58;;;;;;;8.30;3.72;;;31.80;1.00;;;;;;6286364;22;20346;-85
2023/07/09 08:16:46;;;;;;;4.47;3.33;;;32.10;1.00;;;;;;6285666;22;20031;-86
2023/07/09 08:19:47;;;;;;;5.47;3.38;;;32.40;1.00;;;;;;6286487;22;20042;-85
2023/07/09 08:22:35;;;;;;;5.45;3.15;;;33.10;1.00;;;;;;6286516;22;20077;-84
2023/07/09 08:25:26;;;;;;;5.50;3.30;;;34.40;1.00;;;;;;6286686;22;20031;-87
2023/07/09 08:28:18;;;;;;;3.88;3.05;;;34.70;1.00;;;;;;6286186;22;20034;-84
2023/07/09 08:31:08;;;;;;;;;;;34.50;1.00;;;;;;6285064;22;20026;-84
2023/07/09 08:33:56;;;;;;;5.82;3.38;;;35.10;1.00;;;;;;6283899;22;20301;-87
2023/07/09 08:36:45;;;;;;;5.72;3.38;;;35.60;99.90;;;;;;6288872;22;20050;-86
2023/07/09 08:39:32;;;;;;;7.32;3.33;;;36.30;99.90;;;;;;6285820;22;20027;-87
2023/07/09 08:42:39;;;;;;;5.60;2.83;;;36.80;99.90;;;;;;6287173;22;20050;-85
2023/07/09 08:46:04;;;;;;;5.15;3.38;;;36.60;99.90;;;;;;6290690;22;20023;-85
2023/07/09 08:48:54;;;;;;;5.88;3.10;;;35.20;99.90;;;;;;6286920;22;20019;-86
2023/07/09 08:51:43;;;;;;;4.95;3.33;;;34.30;99.90;;;;;;6285088;22;20112;-84
2023/07/09 08:54:34;;;;;;;4.97;3.30;;;33.90;99.90;;;;;;6284745;22;20310;-86
2023/07/09 08:57:25;;;;;;;4.35;2.78;;;34.30;1.00;;;;;;6284551;22;20499;-85
2023/07/09 09:00:18;;;;;;;3.97;3.00;;;35.20;99.90;;;;;;6285214;22;20079;-85
2023/07/09 09:06:00;;;;;;;7.38;3.25;;;34.90;99.90;;;;;;6303916;22;20398;-82
2023/07/09 09:09:02;;;;;;;4.47;3.30;;;35.70;99.90;;;;;;6325330;22;20022;-83
2023/07/09 09:11:57;;;;;;;4.82;3.28;;;36.70;99.90;;;;;;6295785;22;20111;-84
2023/07/09 09:14:56;;;;;;;6.13;3.28;;;37.40;99.90;;;;;;6338647;22;20130;-86
2023/07/09 09:17:44;;;;;;;5.78;3.33;;;38.00;99.90;;;;;;6339363;22;20023;-85
2023/07/09 09:20:31;;;;;;;7.43;3.35;;;37.80;99.90;;;;;;6341276;22;20033;-84
2023/07/09 09:23:21;;;;;;;6.35;2.90;;;36.00;99.90;;;;;;6336905;22;20042;-83
2023/07/09 09:26:20;;;;;;;4.82;3.20;;;35.50;99.90;;;;;;6339197;22;20019;-84
2023/07/09 09:29:16;;;;;;;5.22;3.35;;;35.30;99.90;;;;;;6340438;22;20033;-84
2023/07/09 09:32:17;;;;;;;4.57;2.88;;;35.70;99.90;;;;;;6338641;22;20018;-82
2023/07/09 09:35:19;;;;;;;8.35;3.38;;;36.00;99.90;;;;;;6339357;22;20027;-82
2023/07/09 09:38:17;;;;;;;8.70;3.33;;;36.40;99.90;;;;;;6339155;22;20045;-83
2023/07/09 09:41:04;;;;;;;4.07;2.85;;;36.40;99.90;;;;;;6338968;22;20026;-84
2023/07/09 09:43:57;;;;;;;4.28;2.90;;;37.60;99.90;;;;;;6339882;22;20063;-85
2023/07/09 09:46:55;;;;;;;8.00;3.40;;;38.70;99.90;;;;;;6336909;22;20015;-86
2023/07/09 09:49:45;;;;;;;6.23;3.10;;;39.10;99.90;;;;;;6337109;22;20023;-84
2023/07/09 09:52:35;;;;;;;4.55;3.08;;;39.30;99.90;;;;;;6339776;22;20033;-85
2023/07/09 09:55:30;;;;;;;4.22;3.03;;;37.90;99.90;;;;;;6338740;22;20015;-85
2023/07/09 09:58:18;;;;;;;6.15;2.92;;;37.30;99.90;;;;;;6336617;22;20030;-84
2023/07/09 10:01:16;;;;;;;4.43;3.05;;;37.60;99.90;;;;;;6339626;22;20031;-87
2023/07/09 10:04:16;;;;;;;5.22;2.63;;;36.80;99.90;;;;;;6339867;22;20027;-87
2023/07/09 10:07:07;;;;;;;6.68;3.15;;;36.70;99.90;;;;;;6338992;22;20029;-85
2023/07/09 10:09:59;;;;;;;4.68;3.08;;;37.30;99.90;;;;;;6338745;22;20079;-87
2023/07/09 10:12:51;;;;;;;4.90;2.58;;;38.50;99.90;;;;;;6306021;22;20054;-86
2023/07/09 10:15:56;;;;;;;10.57;3.17;;;39.50;99.90;;;;;;6307265;22;20023;-85
2023/07/09 10:18:50;;;;;;;4.80;2.58;;;39.70;99.90;;;;;;6305270;22;20019;-86
2023/07/09 10:21:57;;;;;;;6.80;2.60;;;39.90;99.90;;;;;;6284163;22;20027;-85
2023/07/09 10:25:15;;;;;;;6.15;2.72;;;41.00;99.90;;;;;;6287686;22;20043;-86
2023/07/09 10:28:35;;;;;;;3.40;2.67;;;40.70;99.90;;;;;;6307220;22;20019;-84
2023/07/09 10:31:39;;;;;;;6.60;2.60;;;39.10;99.90;;;;;;6307876;22;20098;-84
2023/07/09 10:38:45;;;;;;;5.10;2.80;;;38.80;99.90;;;;;;6307655;22;20093;-84
2023/07/09 10:41:35;;;;;;;8.07;2.90;;;38.50;99.90;;;;;;6284387;22;20031;-84
2023/07/09 10:44:31;;;;;;;2.90;2.30;;;39.00;99.90;;;;;;6287181;22;20027;-84
2023/07/09 10:47:41;;;;;;;4.65;2.83;;;40.00;99.90;;;;;;6304003;22;20051;-81
2023/07/09 10:50:40;;;;;;;3.90;2.80;;;40.10;99.90;;;;;;6306146;22;20019;-82
2023/07/09 10:53:50;;;;;;;6.03;2.90;;;40.00;99.90;;;;;;6310605;22;20030;-82
2023/07/09 10:56:39;;;;;;;6.53;2.95;;;40.20;99.90;;;;;;6307708;22;20098;-82
2023/07/09 10:59:31;;;;;;;4.80;3.00;;;41.20;99.90;;;;;;6307404;22;20042;-84
2023/07/09 11:02:31;;;;;;;5.55;3.03;;;41.90;99.90;;;;;;6307617;22;20398;-83
2023/07/09 11:05:18;;;;;;;4.72;2.88;;;40.90;99.90;;;;;;6309256;22;20106;-84
2023/07/09 11:08:20;;;;;;;7.13;3.10;;;41.50;99.90;;;;;;6308066;22;20143;-85
2023/07/09 11:11:45;;;;;;;4.65;2.80;;;40.80;99.90;;;;;;6294173;22;20023;-87
2023/07/09 11:14:51;;;;;;;4.45;3.03;;;39.60;99.90;;;;;;6279741;22;20035;-83
2023/07/09 11:17:43;;;;;;;5.30;3.20;;;39.10;99.90;;;;;;6278348;22;20027;-84
2023/07/09 11:20:43;;;;;;;6.32;3.30;;;40.00;99.90;;;;;;6279364;22;20485;-85
2023/07/09 11:23:44;;;;;;;4.18;2.90;;;40.40;99.90;;;;;;6278219;22;20121;-85
2023/07/09 11:26:36;;;;;;;4.82;3.00;;;40.40;99.90;;;;;;6279787;22;20138;-85
2023/07/09 11:29:24;;;;;;;4.43;3.00;;;41.20;99.90;;;;;;6279139;22;20097;-84
2023/07/09 11:32:21;;;;;;;4.82;3.17;;;40.70;99.90;;;;;;6277122;22;20020;-84
2023/07/09 11:35:12;;;;;;;5.53;2.88;;;40.60;99.90;;;;;;6276044;22;20023;-80
2023/07/09 11:38:08;;;;;;;6.55;3.42;;;39.70;99.90;;;;;;6279054;22;20024;-84
2023/07/09 11:40:56;;;;;;;6.60;3.25;;;39.30;99.90;;;;;;6278315;22;20039;-85
2023/07/09 11:43:48;;;;;;;4.93;3.33;;;39.20;99.90;;;;;;6279228;22;20210;-84
2023/07/09 11:46:42;;;;;;;6.40;3.53;;;39.00;99.90;;;;;;6277594;22;20308;-84
2023/07/09 11:49:50;;;;;;;5.78;3.67;;;39.40;99.90;;;;;;6276736;22;20019;-84
2023/07/09 11:52:49;;;;;;;7.93;3.38;;;40.40;99.90;;;;;;6277116;22;20437;-82
2023/07/09 11:55:39;;;;;;;6.55;3.40;;;40.40;99.90;;;;;;6277105;22;20023;-84
2023/07/09 11:58:26;;;;;;;5.07;3.17;;;40.70;99.90;;;;;;6279034;22;20027;-84
2023/07/09 12:01:18;;;;;;;5.40;3.50;;;41.20;99.90;;;;;;6276658;22;20023;-85
2023/07/09 12:04:05;;;;;;;5.03;3.33;;;42.00;99.90;;;;;;6278015;22;20108;-83
2023/07/09 12:06:57;;;;;;;8.38;3.47;;;42.00;99.90;;;;;;6284311;22;20046;-83
2023/07/09 12:09:50;;;;;;;6.43;3.80;;;41.80;99.90;;;;;;6277927;22;20023;-84
2023/07/09 12:12:44;;;;;;;7.70;3.72;;;42.00;99.90;;;;;;6277249;22;20042;-82
2023/07/09 12:15:36;;;;;;;7.68;4.20;;;42.50;99.90;;;;;;6279073;22;20019;-83
2023/07/09 12:18:23;;;;;;;8.02;3.67;;;41.00;99.90;;;;;;6277536;22;20031;-82
2023/07/09 12:21:14;;;;;;;12.02;4.78;;;39.90;99.90;;;;;;6274958;22;20408;-83
2023/07/09 12:24:02;;;;;;;8.27;3.75;;;40.00;99.90;;;;;;6276965;22;20024;-83
2023/07/09 12:27:02;;;;;;;8.68;4.00;;;40.20;99.90;;;;;;6277820;22;20023;-83
2023/07/09 12:29:55;;;;;;;7.70;4.13;;;39.80;99.90;;;;;;6279161;22;20421;-84
2023/07/09 12:32:49;;;;;;;6.25;3.25;;;39.70;99.90;;;;;;6279136;22;20024;-83
2023/07/09 12:35:36;;;;;;;9.40;4.10;;;40.00;99.90;;;;;;6276711;22;20028;-83
2023/07/09 12:38:30;;;;;;;6.25;3.55;;;39.70;99.90;;;;;;6276228;22;20019;-83
2023/07/09 12:41:29;;;;;;;7.68;3.58;;;39.40;99.90;;;;;;6276659;22;20038;-84
2023/07/09 12:44:21;;;;;;;7.68;3.53;;;39.20;99.90;;;;;;6278760;22;20105;-84
2023/07/09 12:47:14;;;;;;;9.02;4.47;;;40.50;99.90;;;;;;6277926;22;20027;-84
2023/07/09 12:50:16;;;;;;;10.13;3.45;;;41.50;99.90;;;;;;6278837;22;20094;-84
2023/07/09 12:53:16;;;;;;;7.05;3.47;;;42.50;99.90;;;;;;6278157;22;20027;-84
2023/07/09 12:56:13;;;;;;;6.05;3.47;;;43.10;99.90;;;;;;6277988;22;20024;-82
2023/07/09 12:59:04;;;;;;;5.50;3.63;;;42.90;99.90;;;;;;6275435;22;20494;-84
2023/07/09 13:02:06;;;;;;;4.43;3.20;;;42.90;99.90;;;;;;6278474;22;20039;-85
2023/07/09 13:05:06;;;;;;;7.70;3.13;;;43.70;99.90;;;;;;6276772;22;20453;-82
2023/07/09 13:08:01;;;;;;;5.07;2.78;;;43.10;99.90;;;;;;6275533;22;20028;-84
2023/07/09 13:10:51;;;;;;;8.57;3.25;;;41.70;99.90;;;;;;6276327;22;20023;-83
2023/07/09 13:13:38;;;;;;;4.43;3.10;;;41.30;99.90;;;;;;6278792;22;20478;-83
2023/07/09 13:16:25;;;;;;;6.25;3.00;;;41.10;99.90;;;;;;6276308;22;20023;-84
2023/07/09 13:19:13;;;;;;;4.75;3.08;;;40.70;99.90;;;;;;6275819;22;20027;-84
2023/07/09 13:22:01;;;;;;;6.97;3.05;;;40.00;99.90;;;;;;6278660;22;20037;-84
2023/07/09 13:24:48;;;;;;;6.75;2.90;;;41.00;99.90;;;;;;6275026;22;20051;-85
2023/07/09 13:27:36;;;;;;;5.72;2.80;;;42.40;99.90;;;;;;6275501;22;20024;-85
2023/07/09 13:30:24;;;;;;;4.03;2.55;;;42.60;99.90;;;;;;6278994;22;20690;-86
2023/07/09 13:33:12;;;;;;;4.20;3.10;;;43.80;99.90;;;;;;6283792;22;20288;-85
2023/07/09 13:35:59;;;;;;;4.95;2.58;;;43.70;99.90;;;;;;6281696;22;20095;-85
2023/07/09 13:38:49;;;;;;;5.53;3.40;;;42.80;99.90;;;;;;6281558;22;20105;-83
2023/07/09 13:41:38;;;;;;;7.30;3.60;;;41.40;99.90;;;;;;6279749;22;20396;-82
2023/07/09 13:44:28;;;;;;;4.70;3.03;;;39.30;99.90;;;;;;6278817;22;20055;-84
2023/07/09 13:47:18;;;;;;;4.97;3.20;;;38.80;99.90;;;;;;6278451;22;20023;-84
2023/07/09 13:50:08;;;;;;;5.57;3.63;;;39.20;99.90;;;;;;6278112;22;20028;-82
2023/07/09 13:52:55;;;;;;;6.72;3.35;;;39.50;99.90;;;;;;6277066;22;20023;-81
2023/07/09 13:55:43;;;;;;;4.95;3.20;;;38.90;99.90;;;;;;6271439;22;20075;-83
2023/07/09 13:58:35;;;;;;;5.97;2.92;;;38.80;99.90;;;;;;6277199;22;20406;-84
2023/07/09 14:01:24;;;;;;;6.40;3.13;;;39.60;99.90;;;;;;6278377;22;20031;-84
2023/07/09 14:04:13;;;;;;;5.78;2.90;;;41.20;99.90;;;;;;6276747;22;20035;-82
2023/07/09 14:07:02;;;;;;;5.55;2.78;;;42.10;99.90;;;;;;6278639;22;20022;-82
2023/07/09 14:09:50;;;;;;;7.15;2.83;;;42.30;99.90;;;;;;6277080;22;20024;-85
2023/07/09 14:12:44;;;;;;;4.90;3.08;;;42.10;99.90;;;;;;6275952;22;20028;-86
2023/07/09 14:15:31;;;;;;;5.55;2.60;;;42.80;99.90;;;;;;6274427;22;20023;-85
2023/07/09 14:18:21;;;;;;;5.80;2.75;;;43.00;99.90;;;;;;6276608;22;20028;-82
2023/07/09 14:21:20;;;;;;;4.82;3.15;;;41.60;99.90;;;;;;6278296;22;20062;-84
2023/07/09 14:24:16;;;;;;;7.75;3.28;;;40.40;99.90;;;;;;6280067;22;20031;-86
2023/07/09 14:27:08;;;;;;;5.05;2.60;;;40.50;99.90;;;;;;6278085;22;20023;-85
2023/07/09 14:29:59;;;;;;;5.28;2.78;;;40.80;99.90;;;;;;6274560;22;20027;-85
2023/07/09 14:32:48;;;;;;;4.57;3.00;;;41.10;99.90;;;;;;6276830;22;20331;-85
2023/07/09 14:35:36;;;;;;;6.28;2.85;;;40.70;99.90;;;;;;6277644;22;20041;-82
2023/07/09 14:38:27;;;;;;;5.40;2.63;;;40.40;99.90;;;;;;6276814;22;20034;-82
2023/07/09 14:41:22;;;;;;;5.07;2.60;;;40.80;99.90;;;;;;6278921;22;20218;-84
2023/07/09 14:44:24;;;;;;;5.70;2.78;;;41.30;99.90;;;;;;6275950;22;20031;-83
2023/07/09 14:47:20;;;;;;;6.97;2.90;;;41.10;99.90;;;;;;6273664;22;20019;-82
2023/07/09 14:50:09;;;;;;;7.85;2.95;;;41.20;99.90;;;;;;6289236;22;20019;-80
2023/07/09 14:52:56;;;;;;;6.13;2.58;;;40.60;99.90;;;;;;6282500;22;20027;-83
2023/07/09 14:55:44;;;;;;;4.63;3.10;;;39.80;99.90;;;;;;6281054;22;20026;-84
2023/07/09 14:58:32;;;;;;;7.22;4.47;;;39.50;99.90;;;;;;6278701;22;20024;-86
2023/07/09 15:01:24;;;;;;;6.78;3.55;;;40.30;99.90;;;;;;6278855;22;20082;-83
2023/07/09 15:04:23;;;;;;;3.53;2.70;;;40.50;99.90;;;;;;6278789;22;20023;-84
2023/07/09 15:07:10;;;;;;;7.40;3.10;;;39.60;99.90;;;;;;6278424;22;20422;-83
2023/07/09 15:09:59;;;;;;;5.32;2.80;;;38.80;99.90;;;;;;6278521;22;20474;-81
2023/07/09 15:12:47;;;;;;;6.82;3.10;;;37.70;99.90;;;;;;6278660;22;20035;-82
2023/07/09 15:15:36;;;;;;;6.30;3.13;;;37.90;99.90;;;;;;6276465;22;20027;-81
2023/07/09 15:18:27;;;;;;;4.50;2.70;;;37.80;99.90;;;;;;6281309;22;20024;-85
2023/07/09 15:21:17;;;;;;;5.43;3.03;;;37.80;99.90;;;;;;6282143;22;20031;-84
2023/07/09 15:24:05;;;;;;;4.80;2.80;;;38.10;99.90;;;;;;6280198;22;20030;-84
2023/07/09 15:26:54;;;;;;;7.75;3.05;;;38.40;99.90;;;;;;6281692;22;20083;-85
2023/07/09 15:29:42;;;;;;;7.38;3.10;;;38.70;99.90;;;;;;6283170;22;20030;-85
2023/07/09 15:32:29;;;;;;;5.18;2.80;;;38.50;99.90;;;;;;6279064;22;20103;-84
2023/07/09 15:35:21;;;;;;;4.32;3.13;;;37.20;99.90;;;;;;6279365;22;20112;-84
2023/07/09 15:38:18;;;;;;;4.78;3.20;;;36.30;99.90;;;;;;6280355;22;20065;-84
2023/07/09 15:41:13;;;;;;;5.95;3.75;;;36.10;99.90;;;;;;6279052;22;20020;-84
2023/07/09 15:44:00;;;;;;;5.60;3.13;;;36.00;99.90;;;;;;6279994;22;20379;-84
2023/07/09 15:46:52;;;;;;;6.55;3.08;;;36.10;99.90;;;;;;6278129;22;20038;-84
2023/07/09 15:49:40;;;;;;;;;;;36.10;99.90;;;;;;6281137;22;20047;-85
2023/07/09 15:52:27;;;;;;;5.32;2.63;;;36.00;99.90;;;;;;6281033;22;19986;-86
2023/07/09 15:55:17;;;;;;;9.57;3.13;;;35.60;99.90;;;;;;6279606;22;20051;-86
2023/07/09 15:58:04;;;;;;;6.03;3.08;;;34.90;99.90;;;;;;6281360;22;20023;-86
2023/07/09 16:00:52;;;;;;;6.00;2.80;;;34.50;99.90;;;;;;6280223;22;20050;-84
2023/07/09 16:03:58;;;;;;;9.30;3.30;;;34.40;99.90;;;;;;6279921;22;20638;-84
2023/07/09 16:06:46;;;;;;;3.83;3.00;;;34.40;99.90;;;;;;6277780;22;20350;-87
2023/07/09 16:09:33;;;;;;;5.88;3.25;;;34.40;99.90;;;;;;6278957;22;20024;-82
2023/07/09 16:12:20;;;;;;;4.88;2.85;;;34.20;99.90;;;;;;6279500;22;20028;-83
2023/07/09 16:15:11;;;;;;;5.05;3.10;;;34.20;99.90;;;;;;6280229;22;20030;-82
2023/07/09 16:17:58;;;;;;;4.28;2.83;;;34.10;99.90;;;;;;6277843;22;20032;-84
2023/07/09 16:20:46;;;;;;;4.40;2.70;;;34.10;99.90;;;;;;6279857;22;20031;-85
2023/07/09 16:23:34;;;;;;;6.85;3.22;;;34.00;99.90;;;;;;6277681;22;20027;-85
2023/07/09 16:26:26;;;;;;;5.13;2.85;;;34.00;99.90;;;;;;6279744;22;20034;-85
2023/07/09 16:29:28;;;;;;;5.88;3.20;;;33.80;99.90;;;;;;6277306;22;20042;-84
2023/07/09 16:32:15;;;;;;;6.68;2.90;;;33.90;99.90;;;;;;6277095;22;20106;-84
2023/07/09 16:35:03;;;;;;;4.78;2.70;;;33.90;99.90;;;;;;6277574;22;20322;-84
2023/07/09 16:37:51;;;;;;;4.05;2.70;;;33.80;99.90;;;;;;6278981;22;20043;-84
2023/07/09 16:40:39;;;;;;;6.15;3.63;;;33.80;99.90;;;;;;6280988;22;20039;-86
2023/07/09 16:43:28;;;;;;;5.47;3.50;;;33.70;99.90;;;;;;6280705;22;20027;-85
2023/07/09 16:46:25;;;;;;;5.88;2.65;;;33.50;99.90;;;;;;6277656;22;20034;-84
2023/07/09 16:49:38;;;;;;;7.35;3.00;;;33.40;99.90;;;;;;6277929;22;20096;-84
2023/07/09 16:52:25;;;;;;;4.85;3.08;;;33.40;99.90;;;;;;6279064;22;20035;-85
2023/07/09 16:55:18;;;;;;;7.18;4.43;;;33.30;99.90;;;;;;6275465;22;20029;-84
2023/07/09 16:58:12;;;;;;;5.80;3.10;;;33.40;99.90;;;;;;6278795;22;20373;-85